Time;durP1;ratioP1;P1;durP2;ratioP2;P2;SDS_P1;SDS_P2;PMS_P1;PMS_P2;Temp;Humidity;BMP_temperature;BMP_pressure;BME280_temperature;BME280_humidity;BME280_pressure;Samples;Min_cycle;Max_cycle;Signal;HPM_P1;HPM_P2
2023/09/20 00:00:11;;;;;;;4.97;0.50;;;19.10;99.90;;;;;;4116274;28;20175;-93
2023/09/20 00:02:12;;;;;;;4.93;0.70;;;19.00;99.90;;;;;;4116275;28;20185;-92
2023/09/20 00:04:14;;;;;;;3.30;0.60;;;18.90;99.90;;;;;;4116349;28;20205;-93
2023/09/20 00:06:18;;;;;;;1.48;0.65;;;18.90;99.90;;;;;;4100319;29;20187;-94
2023/09/20 00:08:18;;;;;;;4.13;0.80;;;19.00;99.90;;;;;;4100327;29;20266;-94
2023/09/20 00:10:19;;;;;;;2.95;0.88;;;19.00;99.90;;;;;;4132355;28;20660;-92
2023/09/20 00:12:20;;;;;;;1.20;0.50;;;19.10;99.90;;;;;;4115882;28;20657;-93
2023/09/20 00:14:21;;;;;;;6.10;0.68;;;19.00;99.90;;;;;;4116098;28;20209;-93
2023/09/20 00:16:22;;;;;;;1.13;0.40;;;18.80;99.90;;;;;;4099909;29;20219;-92
2023/09/20 00:18:24;;;;;;;4.72;0.38;;;18.80;99.90;;;;;;4115838;28;20217;-92
2023/09/20 00:20:25;;;;;;;5.07;0.60;;;18.80;99.90;;;;;;4100097;29;20241;-93
2023/09/20 00:22:25;;;;;;;0.77;0.50;;;18.80;99.90;;;;;;4100058;29;20225;-92
2023/09/20 00:24:27;;;;;;;2.50;0.43;;;18.90;99.90;;;;;;4099918;29;20203;-92
2023/09/20 00:26:28;;;;;;;3.35;0.50;;;18.90;99.90;;;;;;4132340;28;20185;-92
2023/09/20 00:28:31;;;;;;;6.03;1.35;;;18.70;99.90;;;;;;4116160;28;20228;-93
2023/09/20 00:30:32;;;;;;;2.60;0.80;;;18.80;99.90;;;;;;4099972;29;20246;-92
2023/09/20 00:32:34;;;;;;;3.30;0.65;;;18.80;99.90;;;;;;4116039;28;20649;-93
2023/09/20 00:34:35;;;;;;;2.50;0.60;;;19.00;99.90;;;;;;4099912;29;20210;-94
2023/09/20 00:36:35;;;;;;;2.67;0.30;;;18.80;99.90;;;;;;4099900;29;20183;-93
2023/09/20 00:38:36;;;;;;;2.20;0.70;;;18.90;99.90;;;;;;4099936;29;20190;-93
2023/09/20 00:40:37;;;;;;;2.50;0.90;;;18.80;99.90;;;;;;4115836;28;20186;-92
2023/09/20 00:42:38;;;;;;;6.05;0.68;;;18.70;99.90;;;;;;4115960;28;20257;-91
2023/09/20 00:44:39;;;;;;;4.43;0.60;;;18.70;99.90;;;;;;4115599;28;20198;-93
2023/09/20 00:46:40;;;;;;;6.65;1.13;;;18.70;99.90;;;;;;4116059;28;20190;-93
2023/09/20 00:48:45;;;;;;;2.72;0.77;;;18.60;99.90;;;;;;4100329;29;20178;-93
2023/09/20 00:50:46;;;;;;;3.85;1.17;;;18.60;99.90;;;;;;4104015;29;20195;-94
2023/09/20 00:52:51;;;;;;;4.82;1.05;;;18.50;99.90;;;;;;4103930;29;20653;-92
2023/09/20 00:54:52;;;;;;;3.60;1.02;;;18.40;99.90;;;;;;4102815;28;20222;-93
2023/09/20 00:56:52;;;;;;;1.88;0.40;;;18.40;99.90;;;;;;4108540;28;20692;-92
2023/09/20 00:58:55;;;;;;;3.03;0.40;;;18.30;99.90;;;;;;4122256;28;20186;-92
2023/09/20 01:00:57;;;;;;;1.45;0.50;;;18.30;99.90;;;;;;4106893;29;20187;-92
2023/09/20 01:02:59;;;;;;;1.50;0.40;;;18.30;99.90;;;;;;4105915;29;20207;-93
2023/09/20 01:05:01;;;;;;;0.47;0.40;;;18.30;99.90;;;;;;4106445;29;20235;-92
2023/09/20 01:07:02;;;;;;;3.92;0.68;;;18.20;99.90;;;;;;4103695;29;20191;-95
2023/09/20 01:09:03;;;;;;;1.00;0.40;;;18.20;99.90;;;;;;4103007;29;20197;-93
2023/09/20 01:11:04;;;;;;;2.42;0.73;;;18.00;99.90;;;;;;4118750;28;20186;-93
2023/09/20 01:13:09;;;;;;;4.78;0.80;;;18.10;99.90;;;;;;4118830;28;20560;-94
2023/09/20 01:15:13;;;;;;;0.75;0.32;;;18.00;99.90;;;;;;4102487;28;20211;-91
2023/09/20 01:17:14;;;;;;;3.97;1.52;;;18.00;99.90;;;;;;4102735;29;20273;-93
2023/09/20 01:19:15;;;;;;;2.63;0.70;;;17.90;99.90;;;;;;4103018;29;20582;-93
2023/09/20 01:21:15;;;;;;;3.03;0.40;;;18.00;99.90;;;;;;4118883;28;20281;-93
2023/09/20 01:23:16;;;;;;;1.65;0.68;;;17.90;99.90;;;;;;4102549;28;20736;-93
2023/09/20 01:25:23;;;;;;;2.83;0.77;;;18.00;99.90;;;;;;4102652;29;20199;-92
2023/09/20 01:27:24;;;;;;;3.10;1.10;;;18.10;99.90;;;;;;4102629;29;20183;-92
2023/09/20 01:29:25;;;;;;;5.05;0.60;;;17.90;99.90;;;;;;4102476;29;20594;-93
2023/09/20 01:31:28;;;;;;;5.82;0.68;;;17.90;99.90;;;;;;4118649;28;20183;-94
2023/09/20 01:33:29;;;;;;;3.80;0.60;;;17.90;99.90;;;;;;4103162;29;20262;-93
2023/09/20 01:35:31;;;;;;;1.20;0.35;;;17.80;99.90;;;;;;4102451;28;20226;-92
2023/09/20 01:37:32;;;;;;;1.10;0.52;;;17.80;99.90;;;;;;4118389;28;20182;-91
2023/09/20 01:39:33;;;;;;;0.88;0.32;;;17.70;99.90;;;;;;4102483;29;20250;-94
2023/09/20 01:41:34;;;;;;;4.40;0.70;;;17.70;99.90;;;;;;4102524;29;20183;-92
2023/09/20 01:43:36;;;;;;;1.45;0.80;;;17.60;99.90;;;;;;4102352;29;20202;-92
2023/09/20 01:45:38;;;;;;;2.50;0.70;;;17.50;99.90;;;;;;4102404;29;20195;-92
2023/09/20 01:47:38;;;;;;;4.93;1.02;;;17.60;99.90;;;;;;4102365;28;20194;-93
2023/09/20 01:49:41;;;;;;;1.65;0.95;;;17.60;99.90;;;;;;4102630;29;20729;-93
2023/09/20 01:51:43;;;;;;;0.73;0.20;;;17.50;99.90;;;;;;4102499;29;20557;-93
2023/09/20 01:53:44;;;;;;;2.45;0.65;;;17.60;99.90;;;;;;4102414;29;20206;-93
2023/09/20 01:55:45;;;;;;;2.47;1.00;;;17.50;99.90;;;;;;4102326;28;20215;-94
2023/09/20 01:57:47;;;;;;;4.05;0.80;;;17.40;99.90;;;;;;4102314;29;20660;-93
2023/09/20 01:59:48;;;;;;;2.17;0.82;;;17.40;99.90;;;;;;4101936;28;20195;-93
2023/09/20 02:01:50;;;;;;;2.15;0.88;;;17.50;99.90;;;;;;4102123;28;20208;-93
2023/09/20 02:03:51;;;;;;;2.85;0.77;;;17.60;99.90;;;;;;4102019;29;20238;-92
2023/09/20 02:05:52;;;;;;;3.92;0.73;;;17.40;99.90;;;;;;4102482;29;20179;-94
2023/09/20 02:07:55;;;;;;;1.42;0.95;;;17.50;99.90;;;;;;4117812;28;20209;-92
2023/09/20 02:09:55;;;;;;;3.75;0.60;;;17.50;99.90;;;;;;4102015;29;20179;-94
2023/09/20 02:11:56;;;;;;;3.67;0.93;;;17.50;99.90;;;;;;4117847;28;20193;-92
2023/09/20 02:13:57;;;;;;;4.43;1.13;;;17.60;99.90;;;;;;4101692;29;20657;-92
2023/09/20 02:15:59;;;;;;;2.55;0.70;;;17.60;99.90;;;;;;4118114;28;20735;-95
2023/09/20 02:18:05;;;;;;;2.08;0.50;;;17.60;99.90;;;;;;4101818;29;20183;-93
2023/09/20 02:20:10;;;;;;;1.00;0.65;;;17.50;99.90;;;;;;4101741;29;20186;-93
2023/09/20 02:22:12;;;;;;;4.70;1.17;;;17.50;99.90;;;;;;4101800;29;20190;-92
2023/09/20 02:24:14;;;;;;;4.57;0.70;;;17.50;99.90;;;;;;4118058;28;20556;-92
2023/09/20 02:26:16;;;;;;;2.63;0.73;;;17.70;99.90;;;;;;4117913;28;20638;-93
2023/09/20 02:28:16;;;;;;;1.90;0.55;;;17.60;99.90;;;;;;4119238;28;20189;-92
2023/09/20 02:30:20;;;;;;;2.05;0.68;;;17.60;99.90;;;;;;4103288;28;20179;-93
2023/09/20 02:32:20;;;;;;;3.70;0.65;;;17.60;99.90;;;;;;4101634;29;20183;-93
2023/09/20 02:34:21;;;;;;;1.73;0.63;;;17.50;99.90;;;;;;4117480;28;20197;-93
2023/09/20 02:36:22;;;;;;;2.17;1.00;;;17.50;99.90;;;;;;4101359;29;20269;-94
2023/09/20 02:38:23;;;;;;;1.02;0.40;;;17.50;99.90;;;;;;4101464;28;20210;-94
2023/09/20 02:40:24;;;;;;;1.40;0.55;;;17.60;99.90;;;;;;4101419;29;20192;-94
2023/09/20 02:42:28;;;;;;;3.50;1.13;;;17.40;99.90;;;;;;4101326;29;20186;-93
2023/09/20 02:44:30;;;;;;;1.33;0.52;;;17.40;99.90;;;;;;4101190;29;20211;-93
2023/09/20 02:46:31;;;;;;;1.88;0.50;;;17.40;99.90;;;;;;4101442;28;20212;-93
2023/09/20 02:48:34;;;;;;;2.05;0.73;;;17.40;99.90;;;;;;4101269;29;20191;-93
2023/09/20 02:50:35;;;;;;;2.38;0.70;;;17.40;99.90;;;;;;4101094;29;20218;-93
2023/09/20 02:52:40;;;;;;;4.38;1.00;;;17.50;99.90;;;;;;4101666;28;20179;-93
2023/09/20 02:54:43;;;;;;;3.63;1.10;;;17.50;99.90;;;;;;4101501;29;20231;-93
2023/09/20 02:56:45;;;;;;;1.23;0.77;;;17.60;99.90;;;;;;4101373;29;20186;-93
2023/09/20 02:58:48;;;;;;;1.42;0.90;;;17.50;99.90;;;;;;4117289;28;20241;-93
2023/09/20 03:00:50;;;;;;;2.22;0.80;;;17.40;99.90;;;;;;4101265;28;20187;-93
2023/09/20 03:02:55;;;;;;;1.58;0.75;;;17.20;99.90;;;;;;4117425;28;20633;-93
2023/09/20 03:04:56;;;;;;;0.85;0.60;;;17.10;99.90;;;;;;4101366;28;20191;-93
2023/09/20 03:06:57;;;;;;;1.75;0.50;;;17.10;99.90;;;;;;4101111;28;20182;-94
2023/09/20 03:08:58;;;;;;;2.38;0.90;;;17.10;99.90;;;;;;4116945;28;20625;-93
2023/09/20 03:10:59;;;;;;;3.50;0.88;;;17.00;99.90;;;;;;4117284;28;20277;-92
2023/09/20 03:13:03;;;;;;;1.88;1.13;;;17.00;99.90;;;;;;4100980;29;20250;-93
2023/09/20 03:15:06;;;;;;;2.00;1.00;;;17.00;99.90;;;;;;4116898;28;20225;-93
2023/09/20 03:17:08;;;;;;;4.57;0.52;;;17.10;99.90;;;;;;4116856;28;20234;-93
2023/09/20 03:19:11;;;;;;;3.03;1.50;;;17.20;99.90;;;;;;4100310;28;20179;-93
2023/09/20 03:21:12;;;;;;;1.90;0.52;;;17.10;99.90;;;;;;4117112;28;20183;-93
2023/09/20 03:23:14;;;;;;;2.38;0.60;;;17.00;99.90;;;;;;4101139;28;20274;-92
2023/09/20 03:25:17;;;;;;;4.45;0.70;;;17.10;99.90;;;;;;4100891;29;20202;-91
2023/09/20 03:27:18;;;;;;;5.15;1.05;;;17.20;99.90;;;;;;4101053;29;20649;-93
2023/09/20 03:29:19;;;;;;;1.15;0.50;;;17.20;99.90;;;;;;4100801;29;20187;-92
2023/09/20 03:31:22;;;;;;;1.35;0.50;;;17.20;99.90;;;;;;4100516;29;20359;-93
2023/09/20 03:33:23;;;;;;;3.83;0.82;;;17.10;99.90;;;;;;4100782;29;20550;-93
2023/09/20 03:35:25;;;;;;;1.50;0.68;;;17.10;99.90;;;;;;4100743;28;20303;-92
2023/09/20 03:37:27;;;;;;;5.30;0.60;;;17.10;99.90;;;;;;4100771;29;20187;-93
2023/09/20 03:39:30;;;;;;;1.20;0.40;;;17.10;99.90;;;;;;4100537;29;20183;-93
2023/09/20 03:41:31;;;;;;;4.20;0.75;;;17.00;99.90;;;;;;4100695;29;20179;-93
2023/09/20 03:43:35;;;;;;;3.45;0.82;;;16.90;99.90;;;;;;4100955;28;20265;-94
2023/09/20 03:45:38;;;;;;;0.82;0.30;;;16.90;99.90;;;;;;4116506;28;20205;-94
2023/09/20 03:47:39;;;;;;;7.55;1.10;;;17.00;99.90;;;;;;4100460;29;20186;-94
2023/09/20 03:49:40;;;;;;;1.10;0.60;;;17.00;99.90;;;;;;4100618;29;20613;-92
2023/09/20 03:51:41;;;;;;;6.13;0.73;;;16.80;99.90;;;;;;4100442;29;20278;-93
2023/09/20 03:53:45;;;;;;;6.28;1.23;;;16.80;99.90;;;;;;4100683;28;20207;-93
2023/09/20 03:55:48;;;;;;;3.53;0.60;;;16.90;99.90;;;;;;4100594;28;20289;-91
2023/09/20 03:57:50;;;;;;;3.08;0.50;;;16.80;99.90;;;;;;4100748;28;20190;-93
2023/09/20 03:59:52;;;;;;;1.45;0.50;;;16.80;99.90;;;;;;4100206;29;20183;-93
2023/09/20 04:01:53;;;;;;;0.45;0.38;;;16.80;99.90;;;;;;4116273;28;20214;-93
2023/09/20 04:03:54;;;;;;;1.38;0.73;;;16.70;99.90;;;;;;4100435;28;20666;-93
2023/09/20 04:05:57;;;;;;;0.75;0.50;;;16.60;99.90;;;;;;4100601;29;20182;-93
2023/09/20 04:08:00;;;;;;;1.40;0.22;;;16.60;99.90;;;;;;4100302;29;20187;-93
2023/09/20 04:10:02;;;;;;;0.90;0.45;;;16.60;99.90;;;;;;4116364;28;20198;-92
2023/09/20 04:12:04;;;;;;;2.33;0.70;;;16.60;99.90;;;;;;4116249;28;20185;-92
2023/09/20 04:14:08;;;;;;;2.33;0.80;;;16.70;99.90;;;;;;4100020;29;20206;-92
2023/09/20 04:16:09;;;;;;;1.45;0.50;;;16.80;99.90;;;;;;4099771;29;20273;-92
2023/09/20 04:18:10;;;;;;;1.38;0.60;;;16.70;99.90;;;;;;4116093;28;20256;-92
2023/09/20 04:20:12;;;;;;;1.13;0.45;;;16.70;99.90;;;;;;4099873;29;20238;-93
2023/09/20 04:22:14;;;;;;;0.82;0.60;;;16.70;99.90;;;;;;4100054;29;20590;-93
2023/09/20 04:24:17;;;;;;;1.40;0.60;;;16.70;99.90;;;;;;4115752;28;20685;-93
2023/09/20 04:26:18;;;;;;;2.92;0.60;;;16.60;99.90;;;;;;4100161;28;20183;-92
2023/09/20 04:28:18;;;;;;;1.42;0.55;;;16.60;99.90;;;;;;4099912;29;20211;-93
2023/09/20 04:30:20;;;;;;;2.30;0.82;;;16.60;99.90;;;;;;4099780;29;20266;-92
2023/09/20 04:32:21;;;;;;;1.45;0.60;;;16.80;99.90;;;;;;4099957;29;20190;-93
2023/09/20 04:34:24;;;;;;;5.22;0.70;;;16.80;99.90;;;;;;4099923;28;20207;-92
2023/09/20 04:36:27;;;;;;;1.08;0.60;;;16.70;99.90;;;;;;4116040;28;20218;-92
2023/09/20 04:38:28;;;;;;;7.15;1.08;;;16.60;99.90;;;;;;4116351;28;20197;-93
2023/09/20 04:40:29;;;;;;;1.52;0.70;;;16.60;99.90;;;;;;4099845;29;20191;-93
2023/09/20 04:42:33;;;;;;;0.73;0.55;;;16.60;99.90;;;;;;4099850;29;20700;-93
2023/09/20 04:44:34;;;;;;;4.88;1.25;;;16.60;99.90;;;;;;4115682;28;20288;-93
2023/09/20 04:46:35;;;;;;;3.30;0.73;;;16.60;99.90;;;;;;4099811;29;20190;-93
2023/09/20 04:48:40;;;;;;;6.97;0.60;;;16.50;99.90;;;;;;4115872;28;20178;-93
2023/09/20 04:50:41;;;;;;;1.35;0.60;;;16.60;99.90;;;;;;4115704;28;20617;-93
2023/09/20 04:52:45;;;;;;;1.90;0.73;;;16.70;99.90;;;;;;4099753;29;20191;-93
2023/09/20 04:54:49;;;;;;;1.15;0.60;;;16.60;99.90;;;;;;4099560;29;20214;-93
2023/09/20 04:56:51;;;;;;;2.35;0.73;;;16.50;99.90;;;;;;4099849;29;20191;-92
2023/09/20 04:58:53;;;;;;;0.85;0.63;;;16.60;99.90;;;;;;4099770;28;20183;-93
2023/09/20 05:00:54;;;;;;;0.60;0.40;;;16.50;99.90;;;;;;4099825;29;20616;-92
2023/09/20 05:02:58;;;;;;;0.95;0.45;;;16.50;99.90;;;;;;4100142;29;20187;-93
2023/09/20 05:04:59;;;;;;;0.73;0.73;;;16.40;99.90;;;;;;4099674;29;20270;-93
2023/09/20 05:07:05;;;;;;;0.90;0.50;;;16.50;99.90;;;;;;4100070;29;20258;-92
2023/09/20 05:09:06;;;;;;;1.23;0.60;;;16.50;99.90;;;;;;4099730;29;20187;-91
2023/09/20 05:11:10;;;;;;;1.67;0.65;;;16.60;99.90;;;;;;4099864;29;20186;-92
2023/09/20 05:13:11;;;;;;;1.63;0.52;;;16.50;99.90;;;;;;4099454;29;20613;-92
2023/09/20 05:15:13;;;;;;;1.10;0.60;;;16.50;99.90;;;;;;4099386;29;20219;-93
2023/09/20 05:17:14;;;;;;;1.20;0.50;;;16.40;99.90;;;;;;4115548;28;20182;-90
2023/09/20 05:19:16;;;;;;;2.55;0.60;;;16.30;99.90;;;;;;4100296;29;20184;-92
2023/09/20 05:21:18;;;;;;;2.97;0.65;;;16.40;99.90;;;;;;4101386;29;20183;-91
2023/09/20 05:23:18;;;;;;;1.02;0.32;;;16.50;99.90;;;;;;4099612;29;20199;-93
2023/09/20 05:25:19;;;;;;;0.65;0.40;;;16.40;99.90;;;;;;4099263;29;20198;-91
2023/09/20 05:27:20;;;;;;;1.70;0.68;;;16.40;99.90;;;;;;4099649;29;20199;-90
2023/09/20 05:29:21;;;;;;;1.20;0.50;;;16.50;99.90;;;;;;4099584;28;20589;-90
2023/09/20 05:31:23;;;;;;;3.90;1.35;;;16.60;99.90;;;;;;4099688;28;20580;-94
2023/09/20 05:33:23;;;;;;;1.20;0.40;;;16.50;99.90;;;;;;4099745;29;20202;-94
2023/09/20 05:35:25;;;;;;;0.95;0.60;;;16.50;99.90;;;;;;4099667;28;20218;-92
2023/09/20 05:37:26;;;;;;;0.95;0.50;;;16.50;99.90;;;;;;4115552;28;20223;-91
2023/09/20 05:39:28;;;;;;;3.05;1.15;;;16.40;99.90;;;;;;4099578;29;20221;-91
2023/09/20 05:41:29;;;;;;;3.40;0.73;;;16.50;99.90;;;;;;4099954;28;20215;-92
2023/09/20 05:43:30;;;;;;;0.90;0.70;;;16.50;99.90;;;;;;4102129;28;20752;-91
2023/09/20 05:45:31;;;;;;;1.95;0.75;;;16.50;99.90;;;;;;4118319;28;20182;-92
2023/09/20 05:47:35;;;;;;;6.95;1.15;;;16.60;99.90;;;;;;4102562;28;20191;-93
2023/09/20 05:49:36;;;;;;;0.98;0.65;;;16.70;99.90;;;;;;4102323;29;20235;-96
2023/09/20 05:51:37;;;;;;;3.22;0.88;;;16.60;99.90;;;;;;4102267;29;20217;-94
2023/09/20 05:53:38;;;;;;;1.90;0.70;;;16.70;99.90;;;;;;4102005;29;20627;-91
2023/09/20 05:55:40;;;;;;;2.35;0.55;;;16.70;99.90;;;;;;4117701;28;20233;-92
2023/09/20 05:57:42;;;;;;;2.13;0.70;;;16.80;99.90;;;;;;4102216;29;20179;-92
2023/09/20 05:59:43;;;;;;;3.22;0.80;;;16.90;99.90;;;;;;4102183;29;20190;-92
2023/09/20 06:01:45;;;;;;;1.70;0.77;;;16.90;99.90;;;;;;4102046;28;20565;-92
2023/09/20 06:03:46;;;;;;;2.55;1.27;;;17.00;99.90;;;;;;4101878;29;20573;-91
2023/09/20 06:05:48;;;;;;;2.60;0.65;;;16.90;99.90;;;;;;4101958;29;20202;-91
2023/09/20 06:07:50;;;;;;;1.95;0.70;;;17.10;99.90;;;;;;4101993;29;20254;-92
2023/09/20 06:09:50;;;;;;;0.60;0.50;;;17.20;99.90;;;;;;4118233;28;20711;-92
2023/09/20 06:11:51;;;;;;;4.68;0.90;;;17.30;99.90;;;;;;4102299;29;20183;-92
2023/09/20 06:13:52;;;;;;;2.35;0.57;;;17.40;99.90;;;;;;4102142;28;20234;-92
2023/09/20 06:15:53;;;;;;;1.10;0.50;;;17.30;99.90;;;;;;4117953;28;20222;-93
2023/09/20 06:17:54;;;;;;;0.95;0.65;;;17.40;99.90;;;;;;4102144;29;20186;-93
2023/09/20 06:19:56;;;;;;;1.90;0.80;;;17.40;99.90;;;;;;4118089;28;20189;-91
2023/09/20 06:21:57;;;;;;;1.30;0.90;;;17.40;99.90;;;;;;4101933;29;20183;-93
2023/09/20 06:23:58;;;;;;;1.50;0.47;;;17.60;99.90;;;;;;4117903;28;20759;-91
2023/09/20 06:26:06;;;;;;;1.38;0.50;;;17.60;99.90;;;;;;4101852;29;20262;-94
2023/09/20 06:28:09;;;;;;;0.98;0.77;;;17.70;99.90;;;;;;4101834;29;20217;-94
2023/09/20 06:30:12;;;;;;;2.17;0.88;;;17.70;99.90;;;;;;4101749;29;20179;-93
2023/09/20 06:32:15;;;;;;;1.00;0.60;;;17.80;99.90;;;;;;4101795;29;20594;-93
2023/09/20 06:34:19;;;;;;;1.48;0.40;;;17.70;99.90;;;;;;4101516;29;20290;-94
2023/09/20 06:36:20;;;;;;;1.33;0.80;;;17.80;99.90;;;;;;4117541;28;20233;-91
2023/09/20 06:38:23;;;;;;;2.38;1.17;;;17.80;99.90;;;;;;4101724;28;20175;-93
2023/09/20 06:40:31;;;;;;;0.98;0.47;;;17.80;99.90;;;;;;4101531;29;20187;-91
2023/09/20 06:42:32;;;;;;;1.25;0.50;;;17.90;99.90;;;;;;4101513;29;20178;-94
2023/09/20 06:44:35;;;;;;;2.05;0.55;;;18.10;99.90;;;;;;4101101;29;20301;-93
2023/09/20 06:46:36;;;;;;;2.45;0.70;;;18.00;99.90;;;;;;4101248;29;20179;-92
2023/09/20 06:48:37;;;;;;;3.47;0.82;;;18.00;99.90;;;;;;4117342;28;20269;-93
2023/09/20 06:50:38;;;;;;;5.70;0.88;;;18.00;99.90;;;;;;4101192;29;20171;-91
2023/09/20 06:52:42;;;;;;;1.98;0.68;;;18.10;99.90;;;;;;4100973;28;20186;-92
2023/09/20 06:54:43;;;;;;;5.63;0.90;;;18.20;99.90;;;;;;4100423;28;20209;-92
2023/09/20 06:56:44;;;;;;;5.20;0.68;;;18.50;99.90;;;;;;4101153;29;20187;-93
2023/09/20 06:58:46;;;;;;;1.45;0.75;;;18.60;99.90;;;;;;4101163;29;20175;-91
2023/09/20 07:00:48;;;;;;;1.20;0.63;;;18.70;99.90;;;;;;4101059;29;20192;-92
2023/09/20 07:02:50;;;;;;;2.78;0.90;;;18.90;99.90;;;;;;4101148;29;20171;-91
2023/09/20 07:04:51;;;;;;;2.72;0.85;;;19.00;99.90;;;;;;4101360;29;20257;-91
2023/09/20 07:06:54;;;;;;;2.58;0.88;;;19.00;99.90;;;;;;4117260;28;20250;-92
2023/09/20 07:08:55;;;;;;;1.05;0.40;;;19.00;99.90;;;;;;4101414;29;20286;-91
2023/09/20 07:10:56;;;;;;;5.05;1.15;;;18.90;99.90;;;;;;4100982;29;20175;-93
2023/09/20 07:12:57;;;;;;;1.63;0.70;;;18.90;99.90;;;;;;4100890;29;20518;-93
2023/09/20 07:14:58;;;;;;;1.25;0.50;;;18.70;99.90;;;;;;4116808;28;20399;-91
2023/09/20 07:17:03;;;;;;;1.60;0.60;;;18.70;99.90;;;;;;4101121;29;20191;-91
2023/09/20 07:19:05;;;;;;;2.80;0.60;;;18.60;99.90;;;;;;4101012;29;20179;-93
2023/09/20 07:21:07;;;;;;;5.28;1.05;;;18.50;99.90;;;;;;4101232;29;20243;-93
2023/09/20 07:23:15;;;;;;;6.30;1.10;;;18.60;99.90;;;;;;4100992;29;20182;-91
2023/09/20 07:25:22;;;;;;;1.38;0.60;;;18.70;99.90;;;;;;4116819;28;20234;-92
2023/09/20 07:27:26;;;;;;;1.85;0.73;;;18.80;99.90;;;;;;4100914;29;20269;-93
2023/09/20 07:29:26;;;;;;;2.30;0.73;;;18.90;99.90;;;;;;4100756;29;20179;-93
2023/09/20 07:31:27;;;;;;;1.75;0.70;;;18.80;99.90;;;;;;4100727;29;20189;-91
2023/09/20 07:33:29;;;;;;;3.35;0.45;;;18.90;99.90;;;;;;4116731;28;20206;-93
2023/09/20 07:35:39;;;;;;;2.40;0.77;;;18.80;99.90;;;;;;4116683;28;20225;-92
2023/09/20 07:37:43;;;;;;;5.88;0.52;;;18.80;99.90;;;;;;4100662;29;20186;-92
2023/09/20 07:39:46;;;;;;;0.75;0.40;;;18.90;99.90;;;;;;4100904;28;20242;-94
2023/09/20 07:41:50;;;;;;;2.47;0.88;;;19.10;99.90;;;;;;4100662;28;20234;-92
2023/09/20 07:43:53;;;;;;;1.30;0.75;;;19.00;99.90;;;;;;4100682;29;20210;-94
2023/09/20 07:45:54;;;;;;;1.60;0.88;;;19.20;99.90;;;;;;4100824;29;20178;-91
2023/09/20 07:47:55;;;;;;;10.15;0.60;;;19.10;99.90;;;;;;4100201;29;20278;-92
2023/09/20 07:49:56;;;;;;;0.85;0.30;;;19.10;99.90;;;;;;4100338;28;20198;-93
2023/09/20 07:51:56;;;;;;;1.83;0.65;;;19.10;99.90;;;;;;4116314;28;20620;-91
2023/09/20 07:53:58;;;;;;;1.45;0.50;;;19.20;99.90;;;;;;4100198;28;20202;-93
2023/09/20 07:56:03;;;;;;;4.15;0.52;;;19.40;99.90;;;;;;4099899;29;20283;-92
2023/09/20 07:58:05;;;;;;;3.60;1.23;;;19.40;99.90;;;;;;4116266;28;20237;-91
2023/09/20 08:00:09;;;;;;;0.50;0.30;;;19.70;99.90;;;;;;4099778;28;20628;-92
2023/09/20 08:02:15;;;;;;;1.33;0.47;;;19.80;99.90;;;;;;4116272;28;20189;-92
2023/09/20 08:04:18;;;;;;;4.63;0.95;;;19.80;99.90;;;;;;4101053;28;20267;-90
2023/09/20 08:06:24;;;;;;;1.33;0.50;;;19.60;99.90;;;;;;4100344;28;20210;-90
2023/09/20 08:08:24;;;;;;;0.55;0.28;;;19.80;99.90;;;;;;4100182;29;20242;-91
2023/09/20 08:10:25;;;;;;;0.55;0.45;;;19.70;99.90;;;;;;4115958;28;20187;-93
2023/09/20 08:12:26;;;;;;;1.02;0.40;;;19.90;99.90;;;;;;4100401;29;20662;-94
2023/09/20 08:14:27;;;;;;;1.45;0.30;;;19.90;99.90;;;;;;4115856;28;20261;-92
2023/09/20 08:16:33;;;;;;;1.52;0.43;;;19.90;99.90;;;;;;4099812;28;20716;-92
2023/09/20 08:20:53;;;;;;;0.85;0.35;;;19.90;99.90;;;;;;4115889;28;20190;-91
2023/09/20 09:00:27;;;;;;;0.70;0.40;;;20.30;99.90;;;;;;4131529;28;20185;-90
2023/09/20 09:02:30;;;;;;;2.25;0.60;;;20.30;99.90;;;;;;4132440;28;20216;-96
2023/09/20 09:04:32;;;;;;;1.35;0.45;;;20.20;99.90;;;;;;4134531;28;20301;-90
2023/09/20 09:06:34;;;;;;;0.20;0.13;;;20.20;99.90;;;;;;4131076;28;20177;-91
2023/09/20 09:08:34;;;;;;;0.90;0.40;;;20.10;99.90;;;;;;4115395;28;20189;-91
2023/09/20 09:10:35;;;;;;;0.57;0.30;;;20.00;99.90;;;;;;4099061;28;20242;-91
2023/09/20 09:12:36;;;;;;;1.00;0.40;;;20.00;99.90;;;;;;4132453;28;20178;-93
2023/09/20 09:14:40;;;;;;;0.75;0.35;;;20.00;99.90;;;;;;4100399;28;20286;-89
2023/09/20 09:16:41;;;;;;;7.50;0.55;;;20.10;99.90;;;;;;4134522;28;20224;-91
2023/09/20 09:18:41;;;;;;;3.20;0.57;;;20.00;99.90;;;;;;4102580;28;20182;-90
2023/09/20 09:20:42;;;;;;;1.88;0.85;;;20.10;99.90;;;;;;4120649;28;20213;-90
2023/09/20 09:22:44;;;;;;;1.58;0.40;;;20.20;99.90;;;;;;4119158;28;20269;-90
2023/09/20 09:24:47;;;;;;;1.83;0.65;;;20.30;99.90;;;;;;4134988;28;20375;-89
2023/09/20 09:26:48;;;;;;;1.08;0.45;;;20.30;99.90;;;;;;4118031;28;20171;-91
2023/09/20 09:28:49;;;;;;;1.70;0.60;;;20.20;99.90;;;;;;4118083;28;20190;-93
2023/09/20 09:30:51;;;;;;;1.13;0.30;;;20.20;99.90;;;;;;4119655;28;20246;-95
2023/09/20 09:32:52;;;;;;;3.45;0.40;;;20.30;99.90;;;;;;4118157;28;20284;-91
2023/09/20 09:34:56;;;;;;;0.70;0.30;;;20.40;99.90;;;;;;4117114;28;20214;-94
2023/09/20 09:36:57;;;;;;;2.67;0.60;;;20.40;99.90;;;;;;4116217;28;20186;-93
2023/09/20 09:39:14;;;;;;;0.65;0.40;;;20.30;99.90;;;;;;4133594;28;20186;-89
2023/09/20 09:41:15;;;;;;;0.45;0.30;;;20.40;99.90;;;;;;4133291;28;20237;-91
2023/09/20 09:43:16;;;;;;;3.38;1.08;;;20.50;99.90;;;;;;4118176;28;20523;-95
2023/09/20 09:45:30;;;;;;;2.28;0.55;;;20.50;99.90;;;;;;4135761;28;20604;-91
2023/09/20 09:47:33;;;;;;;0.55;0.40;;;20.60;99.90;;;;;;4117310;28;20621;-91
2023/09/20 09:49:34;;;;;;;2.72;0.40;;;20.50;99.90;;;;;;4118199;28;20498;-90
2023/09/20 09:51:38;;;;;;;0.43;0.30;;;20.60;99.90;;;;;;4117469;28;20179;-95
2023/09/20 09:53:41;;;;;;;0.35;0.30;;;20.60;99.90;;;;;;4117560;28;20206;-90
2023/09/20 09:55:42;;;;;;;0.60;0.40;;;20.80;99.90;;;;;;4133710;28;20217;-94
2023/09/20 09:57:44;;;;;;;0.22;0.20;;;20.80;99.90;;;;;;4101414;29;20242;-90
2023/09/20 09:59:46;;;;;;;2.38;0.43;;;20.80;99.90;;;;;;4117860;28;20174;-93
2023/09/20 10:01:48;;;;;;;2.47;0.77;;;20.60;99.90;;;;;;4121554;28;20182;-92
2023/09/20 10:03:53;;;;;;;0.57;0.40;;;20.50;99.90;;;;;;4138162;28;20545;-96
2023/09/20 10:06:05;;;;;;;0.65;0.40;;;20.60;99.90;;;;;;4124540;28;20178;-88
2023/09/20 10:08:07;;;;;;;1.45;0.40;;;20.80;99.90;;;;;;4123908;28;20189;-90
2023/09/20 10:10:12;;;;;;;2.05;0.50;;;20.90;99.90;;;;;;4138057;28;20182;-93
2023/09/20 10:12:15;;;;;;;1.08;0.40;;;20.80;99.90;;;;;;4134714;28;20181;-95
2023/09/20 10:14:19;;;;;;;0.25;0.25;;;20.80;99.90;;;;;;4135415;28;20213;-90
2023/09/20 10:16:22;;;;;;;1.23;0.45;;;21.10;99.90;;;;;;4118434;28;20226;-89
2023/09/20 10:18:28;;;;;;;0.85;0.35;;;21.20;99.90;;;;;;4119936;28;20186;-96
2023/09/20 10:21:00;;;;;;;1.60;0.43;;;21.40;99.90;;;;;;4135649;28;20293;-94
2023/09/20 10:23:04;;;;;;;0.52;0.40;;;21.40;99.90;;;;;;4136564;28;20193;-95
2023/09/20 10:25:26;;;;;;;2.28;0.70;;;21.40;99.90;;;;;;4134239;28;20224;-95
2023/09/20 10:27:30;;;;;;;3.03;0.65;;;21.30;99.90;;;;;;4134532;28;20181;-91
2023/09/20 10:29:33;;;;;;;0.40;0.30;;;21.30;99.90;;;;;;4118313;28;20202;-89
2023/09/20 10:31:39;;;;;;;0.75;0.40;;;21.50;99.90;;;;;;4118520;28;20245;-94
2023/09/20 10:33:45;;;;;;;0.32;0.20;;;21.60;99.90;;;;;;4134896;28;20229;-90
2023/09/20 10:35:46;;;;;;;5.22;0.50;;;21.70;99.90;;;;;;4133826;28;20213;-94
2023/09/20 10:38:07;;;;;;;1.50;0.40;;;21.80;99.90;;;;;;4117498;28;20182;-91
2023/09/20 10:40:08;;;;;;;0.40;0.30;;;21.60;99.90;;;;;;4135581;28;20182;-90
2023/09/20 10:42:12;;;;;;;1.58;0.43;;;21.40;99.90;;;;;;4117685;28;20178;-91
2023/09/20 10:44:29;;;;;;;0.90;0.50;;;21.60;99.90;;;;;;4118229;28;20277;-92
2023/09/20 10:46:35;;;;;;;0.45;0.20;;;21.50;99.90;;;;;;4133910;28;20185;-91
2023/09/20 10:48:48;;;;;;;0.50;0.30;;;21.40;99.90;;;;;;4117425;28;20178;-95
2023/09/20 10:50:50;;;;;;;0.85;0.40;;;21.10;99.90;;;;;;4134017;28;20177;-94
2023/09/20 10:52:56;;;;;;;1.45;0.35;;;21.10;99.90;;;;;;4133502;28;20224;-91
2023/09/20 10:55:16;;;;;;;1.75;0.65;;;21.10;99.90;;;;;;4117103;28;20210;-91
2023/09/20 10:57:22;;;;;;;0.45;0.40;;;21.00;99.90;;;;;;4133768;28;20201;-91
2023/09/20 10:59:26;;;;;;;1.73;0.50;;;20.90;99.90;;;;;;4118148;28;20174;-89
2023/09/20 11:01:27;;;;;;;1.08;0.32;;;20.90;99.90;;;;;;4134634;28;20186;-92
2023/09/20 11:03:29;;;;;;;1.65;0.50;;;21.00;99.90;;;;;;4121915;28;20290;-91
2023/09/20 11:05:30;;;;;;;1.60;0.50;;;21.10;99.90;;;;;;4134147;28;20246;-92
2023/09/20 11:07:32;;;;;;;1.20;0.35;;;20.90;99.90;;;;;;4133596;28;20182;-90
2023/09/20 11:09:33;;;;;;;1.35;0.40;;;20.70;99.90;;;;;;4118913;28;20190;-95
2023/09/20 11:11:37;;;;;;;5.45;0.28;;;20.70;99.90;;;;;;4134749;28;20173;-91
2023/09/20 11:13:37;;;;;;;1.08;0.50;;;20.80;99.90;;;;;;4120515;28;20202;-91
2023/09/20 11:15:41;;;;;;;0.75;0.30;;;20.80;99.90;;;;;;4119488;28;20301;-94
2023/09/20 11:17:42;;;;;;;1.55;0.40;;;20.90;99.90;;;;;;4106703;29;20191;-95